25°C Temp
21°C Dewpoint
% Humidity
Temperature
19 KM/H
12 MPH
10 KTS
50°
North East

Wind Speed
Partly Cloudy
Conditions
Pressure 1010.92 (hPa) - 29.85 (in)
Visibility 6.2 (mi) - 10.0 (km)

Current Conditions
YBBN
Location 15(km)
Metar :YBBN 251030Z 05010KT 9999 FEW020 SCT140 25/21 Q1011
Thu 25th February 20:30 pm

Airport
  Metar Aviation API Data Provided by https://www.checkwx.com/ PHP scripts by weather34.com ©2021